createdAt,value
2018-03-21T00:01:01.533Z,11.80
2018-03-21T00:03:33.024Z,11.80
2018-03-21T00:06:04.842Z,10.68
2018-03-21T00:08:35.989Z,9.40
2018-03-21T00:11:05.821Z,9.48
2018-03-21T00:13:35.200Z,9.27
2018-03-21T00:16:04.382Z,7.70
2018-03-21T00:18:35.042Z,8.57
2018-03-21T00:21:04.031Z,8.57
2018-03-21T00:26:16.249Z,8.70
2018-03-21T00:28:45.174Z,9.75
2018-03-21T00:31:14.141Z,8.20
2018-03-21T00:33:44.112Z,7.53
2018-03-21T00:36:13.204Z,8.05
2018-03-21T00:38:42.173Z,7.95
2018-03-21T00:43:45.112Z,8.05
2018-03-21T00:46:14.134Z,8.90
2018-03-21T00:48:43.134Z,8.25
2018-03-21T00:51:13.004Z,7.37
2018-03-21T00:53:42.036Z,8.85
2018-03-21T00:56:11.186Z,8.65
2018-03-21T00:58:41.010Z,9.20
2018-03-21T01:01:10.900Z,10.25
2018-03-21T01:03:40.054Z,8.85
2018-03-21T01:06:10.926Z,9.55
2018-03-21T01:08:40.199Z,8.35
2018-03-21T01:11:09.148Z,8.75
2018-03-21T01:13:39.052Z,8.63
2018-03-21T01:16:09.893Z,8.95
2018-03-21T01:18:38.883Z,9.45
2018-03-21T01:21:08.028Z,9.80
2018-03-21T01:23:37.391Z,8.52
2018-03-21T01:26:06.388Z,8.65
2018-03-21T01:28:40.845Z,8.95
2018-03-21T01:31:11.035Z,7.35
2018-03-21T01:33:40.015Z,6.57
2018-03-21T01:36:09.999Z,6.22
2018-03-21T01:38:40.642Z,6.95
2018-03-21T01:41:10.566Z,7.62
2018-03-21T01:43:39.481Z,7.40
2018-03-21T01:46:08.558Z,6.57
2018-03-21T01:48:40.551Z,6.45
2018-03-21T01:51:10.184Z,7.35
2018-03-21T01:53:39.094Z,6.40
2018-03-21T01:56:08.130Z,5.45
2018-03-21T01:58:38.263Z,5.07
2018-03-21T02:01:08.862Z,6.03
2018-03-21T02:03:37.984Z,5.50
2018-03-21T02:06:07.793Z,5.82
2018-03-21T02:08:36.990Z,6.50
2018-03-21T02:11:06.090Z,8.60
2018-03-21T02:13:35.183Z,8.90
2018-03-21T02:16:05.110Z,8.70
2018-03-21T02:18:34.044Z,7.60
2018-03-21T02:21:03.020Z,6.87
2018-03-21T02:23:33.827Z,6.15
2018-03-21T02:26:02.799Z,6.40
2018-03-21T02:28:31.948Z,7.90
2018-03-21T02:31:01.119Z,7.03
2018-03-21T02:33:30.308Z,6.70
2018-03-21T02:35:59.567Z,7.65
2018-03-21T02:38:29.528Z,7.90
2018-03-21T02:40:58.621Z,9.38
2018-03-21T02:43:28.316Z,9.13
2018-03-21T02:45:57.329Z,7.57
2018-03-21T02:48:26.423Z,6.62
2018-03-21T02:50:55.528Z,8.43
2018-03-21T02:53:31.252Z,7.68
2018-03-21T02:56:00.526Z,8.20
2018-03-21T02:58:29.566Z,7.82
2018-03-21T03:00:59.544Z,7.65
2018-03-21T03:03:28.784Z,9.00
2018-03-21T03:05:57.871Z,7.22
2018-03-21T03:08:28.559Z,6.60
2018-03-21T03:10:57.670Z,6.50
2018-03-21T03:13:26.702Z,6.00
2018-03-21T03:15:57.224Z,6.05
2018-03-21T03:18:28.784Z,6.72
2018-03-21T03:20:59.260Z,8.32
2018-03-21T03:23:29.709Z,8.20
2018-03-21T03:26:02.693Z,7.62
2018-03-21T03:28:32.897Z,8.10
2018-03-21T03:31:01.949Z,8.65
2018-03-21T03:33:31.339Z,7.40
2018-03-21T03:36:00.354Z,8.05
2018-03-21T03:38:30.318Z,8.82
2018-03-21T03:40:59.435Z,9.35
2018-03-21T03:43:28.528Z,9.82
2018-03-21T03:45:57.750Z,9.93
2018-03-21T03:48:27.872Z,11.15
2018-03-21T03:50:56.964Z,10.02
2018-03-21T03:53:26.281Z,12.07
2018-03-21T03:55:55.620Z,17.73
2018-03-21T03:58:27.431Z,19.80
2018-03-21T04:00:56.678Z,11.68
2018-03-21T04:03:26.244Z,11.75
2018-03-21T04:05:55.566Z,10.23
2018-03-21T04:08:24.731Z,11.07
2018-03-21T04:10:53.928Z,16.73
2018-03-21T04:13:23.650Z,14.52
2018-03-21T04:15:52.620Z,12.93
2018-03-21T04:18:21.791Z,14.20
2018-03-21T04:20:50.840Z,13.57
2018-03-21T04:23:22.894Z,15.27
2018-03-21T04:25:51.990Z,13.57
2018-03-21T04:28:22.163Z,12.30
2018-03-21T04:30:52.239Z,13.80
2018-03-21T04:33:21.389Z,13.43
2018-03-21T04:35:50.324Z,11.10
2018-03-21T04:38:21.816Z,12.05
2018-03-21T04:40:50.884Z,12.77
2018-03-21T04:43:19.994Z,23.52
2018-03-21T04:45:49.154Z,16.75
2018-03-21T04:48:19.925Z,12.82
2018-03-21T04:50:50.758Z,11.48
2018-03-21T04:53:19.799Z,14.48
2018-03-21T04:55:48.842Z,10.77
2018-03-21T04:58:18.282Z,9.60
2018-03-21T05:00:47.314Z,9.77
2018-03-21T05:03:16.507Z,10.15
2018-03-21T05:05:46.404Z,12.07
2018-03-21T05:08:16.198Z,12.40
2018-03-21T05:10:46.070Z,11.30
2018-03-21T05:13:15.368Z,13.77
2018-03-21T05:15:44.442Z,14.50
2018-03-21T05:18:13.570Z,13.80
2018-03-21T05:20:44.524Z,13.80
2018-03-21T05:23:13.758Z,14.50
2018-03-21T05:25:43.640Z,69.43
2018-03-21T05:28:12.724Z,15.37
2018-03-21T05:30:41.915Z,13.30
2018-03-21T05:33:11.100Z,10.67
2018-03-21T05:35:40.212Z,10.23
2018-03-21T05:38:09.213Z,13.43
2018-03-21T05:40:39.070Z,12.00
2018-03-21T05:43:09.009Z,11.33
2018-03-21T05:45:40.137Z,10.43
2018-03-21T05:48:11.180Z,9.00
2018-03-21T05:50:41.182Z,9.50
2018-03-21T05:53:10.124Z,9.70
2018-03-21T05:55:44.282Z,13.63
2018-03-21T05:58:13.180Z,9.83
2018-03-21T06:00:42.436Z,11.53
2018-03-21T06:05:47.538Z,12.63
2018-03-21T06:08:18.213Z,13.60
2018-03-21T06:10:49.963Z,13.40
2018-03-21T06:13:19.091Z,13.03
2018-03-21T06:15:49.260Z,12.03
2018-03-21T06:18:20.713Z,11.80
2018-03-21T06:20:50.101Z,12.80
2018-03-21T06:23:19.290Z,12.63
2018-03-21T06:25:49.002Z,12.10
2018-03-21T06:28:18.167Z,12.03
2018-03-21T06:30:47.157Z,13.20
2018-03-21T06:35:51.112Z,13.93
2018-03-21T06:38:20.076Z,12.27
2018-03-21T06:40:50.087Z,12.30
2018-03-21T06:43:19.130Z,14.70
2018-03-21T06:45:48.426Z,11.60
2018-03-21T06:48:18.247Z,11.20
2018-03-21T06:50:48.099Z,14.73
2018-03-21T06:53:17.294Z,11.57
2018-03-21T06:58:23.344Z,11.57
2018-03-21T07:00:52.435Z,11.57
2018-03-21T07:03:22.282Z,10.80
2018-03-21T07:05:51.416Z,12.37
2018-03-21T07:08:27.120Z,11.13
2018-03-21T07:10:56.902Z,9.10
2018-03-21T07:13:26.039Z,9.67
2018-03-21T07:16:07.011Z,9.90
2018-03-21T07:18:35.860Z,9.80
2018-03-21T07:21:04.998Z,9.00
2018-03-21T07:23:35.845Z,10.60
2018-03-21T07:26:04.943Z,11.50
2018-03-21T07:28:35.559Z,11.87
2018-03-21T07:31:04.634Z,16.93
2018-03-21T07:33:33.758Z,12.10
2018-03-21T07:36:02.858Z,14.07
2018-03-21T07:38:34.995Z,11.93
2018-03-21T07:41:03.910Z,13.23
2018-03-21T07:43:32.902Z,12.50
2018-03-21T07:46:05.197Z,11.32
2018-03-21T07:48:34.176Z,12.60
2018-03-21T07:51:03.354Z,10.70
2018-03-21T07:53:33.895Z,11.43
2018-03-21T07:56:02.862Z,13.15
2018-03-21T07:58:31.784Z,11.32
2018-03-21T08:01:00.879Z,11.57
2018-03-21T08:03:29.734Z,11.23
2018-03-21T08:05:58.704Z,14.13
2018-03-21T08:11:04.336Z,12.55
2018-03-21T08:13:33.941Z,11.97
2018-03-21T08:16:03.069Z,11.25
2018-03-21T08:18:32.069Z,11.30
2018-03-21T08:21:01.130Z,11.90
2018-03-21T08:23:32.674Z,11.90
2018-03-21T08:26:02.818Z,10.43
2018-03-21T08:28:31.898Z,11.65
2018-03-21T08:31:01.197Z,12.40
2018-03-21T08:33:30.194Z,11.95
2018-03-21T08:35:59.343Z,12.70
2018-03-21T08:38:29.303Z,11.95
2018-03-21T08:40:59.089Z,13.55
2018-03-21T08:43:28.849Z,15.52
2018-03-21T08:45:58.674Z,14.60
2018-03-21T08:48:28.562Z,15.02
2018-03-21T08:50:57.488Z,15.25
2018-03-21T08:53:28.998Z,13.50
2018-03-21T08:55:57.995Z,12.50
2018-03-21T08:58:26.946Z,14.63
2018-03-21T09:00:56.777Z,14.15
2018-03-21T09:03:25.883Z,15.47
2018-03-21T09:05:54.945Z,16.90
2018-03-21T09:08:24.806Z,15.80
2018-03-21T09:10:53.892Z,13.93
2018-03-21T09:13:22.883Z,17.67
2018-03-21T09:15:51.981Z,17.02
2018-03-21T09:18:24.445Z,13.80
2018-03-21T09:20:53.535Z,17.20
2018-03-21T09:23:23.321Z,17.20
2018-03-21T09:25:53.346Z,16.92
2018-03-21T09:28:25.507Z,15.82
2018-03-21T09:30:54.604Z,17.70
2018-03-21T09:33:23.698Z,15.35
2018-03-21T09:35:54.360Z,16.23
2018-03-21T09:38:23.738Z,15.05
2018-03-21T09:40:53.123Z,13.85
2018-03-21T09:43:23.043Z,16.00
2018-03-21T09:45:54.721Z,15.77
2018-03-21T09:48:24.593Z,15.95
2018-03-21T09:50:57.580Z,16.48
2018-03-21T09:53:27.427Z,15.13
2018-03-21T09:55:56.422Z,15.77
2018-03-21T09:58:25.369Z,14.20
2018-03-21T10:00:56.161Z,16.37
2018-03-21T10:03:24.977Z,15.75
2018-03-21T10:05:54.806Z,16.67
2018-03-21T10:08:24.638Z,15.13
2018-03-21T10:10:53.628Z,16.12
2018-03-21T10:13:22.655Z,18.40
2018-03-21T10:15:51.850Z,17.87
2018-03-21T10:18:22.171Z,16.10
2018-03-21T10:20:51.070Z,15.73
2018-03-21T10:23:20.990Z,15.60
2018-03-21T10:25:52.845Z,15.48
2018-03-21T10:30:56.326Z,15.60
2018-03-21T10:33:25.630Z,20.48
2018-03-21T10:35:57.469Z,16.30
2018-03-21T10:38:27.093Z,15.50
2018-03-21T10:40:57.014Z,19.20
2018-03-21T10:43:26.112Z,17.13
2018-03-21T10:45:55.110Z,16.65
2018-03-21T10:48:23.981Z,19.27
2018-03-21T10:50:53.193Z,17.53
2018-03-21T10:53:24.876Z,20.90
2018-03-21T10:55:54.764Z,19.15
2018-03-21T10:58:23.758Z,24.25
2018-03-21T11:00:52.751Z,18.20
2018-03-21T11:03:23.422Z,21.20
2018-03-21T11:05:52.442Z,18.70
2018-03-21T11:08:21.434Z,22.77
2018-03-21T11:10:50.568Z,23.70
2018-03-21T11:13:22.616Z,21.98
2018-03-21T11:15:53.274Z,22.83
2018-03-21T11:18:22.363Z,22.30
2018-03-21T11:20:51.565Z,21.12
2018-03-21T11:23:21.713Z,18.08
2018-03-21T11:25:51.386Z,18.77
2018-03-21T11:28:20.582Z,19.40
2018-03-21T11:30:50.452Z,18.70
2018-03-21T11:33:19.495Z,18.37
2018-03-21T11:35:49.516Z,19.00
2018-03-21T11:38:22.707Z,19.37
2018-03-21T11:40:52.650Z,20.73
2018-03-21T11:43:22.329Z,19.37
2018-03-21T11:45:52.201Z,20.10
2018-03-21T11:48:21.574Z,18.90
2018-03-21T11:50:50.569Z,19.65
2018-03-21T11:55:53.859Z,18.85
2018-03-21T11:58:22.788Z,17.98
2018-03-21T12:03:27.292Z,18.25
2018-03-21T12:05:56.734Z,22.67
2018-03-21T12:08:25.782Z,17.85
2018-03-21T12:10:58.464Z,17.95
2018-03-21T12:13:27.488Z,17.80
2018-03-21T12:15:56.380Z,19.17
2018-03-21T12:18:27.091Z,17.33
2018-03-21T12:20:56.082Z,20.77
2018-03-21T12:23:25.076Z,17.75
2018-03-21T12:25:54.157Z,23.75
2018-03-21T12:28:23.173Z,22.42
2018-03-21T12:30:52.257Z,18.70
2018-03-21T12:33:21.390Z,18.10
2018-03-21T12:35:50.302Z,18.60
2018-03-21T12:38:19.303Z,18.23
2018-03-21T12:40:48.544Z,23.07
2018-03-21T12:43:17.435Z,20.05
2018-03-21T12:45:49.086Z,20.15
2018-03-21T12:48:19.867Z,22.15
2018-03-21T12:50:49.692Z,22.25
2018-03-21T12:53:18.632Z,21.65
2018-03-21T12:55:47.896Z,22.67
2018-03-21T12:58:16.926Z,26.90
2018-03-21T13:00:45.811Z,23.83
2018-03-21T13:03:20.460Z,21.12
2018-03-21T13:05:49.546Z,32.60
2018-03-21T13:08:19.284Z,27.48
2018-03-21T13:10:48.381Z,31.87
2018-03-21T13:13:18.251Z,24.45
2018-03-21T13:15:47.914Z,30.37
2018-03-21T13:18:18.738Z,24.63
2018-03-21T13:20:48.069Z,26.75
2018-03-21T13:23:17.155Z,25.33
2018-03-21T13:25:47.128Z,28.25
2018-03-21T13:28:16.180Z,26.20
2018-03-21T13:30:45.322Z,25.60
2018-03-21T13:33:14.612Z,27.90
2018-03-21T13:35:43.749Z,27.90
2018-03-21T13:38:12.821Z,30.25
2018-03-21T13:40:41.905Z,26.12
2018-03-21T13:43:11.100Z,28.17
2018-03-21T13:45:40.090Z,25.50
2018-03-21T13:48:13.909Z,23.23
2018-03-21T13:50:42.836Z,25.37
2018-03-21T13:53:12.336Z,26.80
2018-03-21T13:55:42.948Z,25.98
2018-03-21T13:58:12.033Z,25.17
2018-03-21T14:00:42.722Z,29.25
2018-03-21T14:03:12.400Z,25.77
2018-03-21T14:05:42.347Z,28.58
2018-03-21T14:08:11.400Z,27.70
2018-03-21T14:10:44.844Z,29.58
2018-03-21T14:13:14.012Z,31.85
2018-03-21T14:15:43.325Z,29.60
2018-03-21T14:18:14.348Z,34.33
2018-03-21T14:20:43.382Z,34.22
2018-03-21T14:23:12.488Z,29.48
2018-03-21T14:25:41.652Z,32.05
2018-03-21T14:28:11.743Z,31.42
2018-03-21T14:30:41.593Z,25.48
2018-03-21T14:33:11.613Z,24.12
2018-03-21T14:35:41.587Z,24.33
2018-03-21T14:38:10.693Z,26.62
2018-03-21T14:40:40.541Z,25.85
2018-03-21T14:43:09.613Z,22.52
2018-03-21T14:45:39.579Z,29.87
2018-03-21T14:50:46.303Z,25.50
2018-03-21T14:53:16.913Z,27.70
2018-03-21T14:55:46.134Z,31.87
2018-03-21T15:00:49.964Z,27.42
2018-03-21T15:03:19.774Z,27.75
2018-03-21T15:05:49.833Z,26.00
2018-03-21T15:08:18.919Z,28.42
2018-03-21T15:10:47.879Z,29.85
2018-03-21T15:13:16.984Z,31.23
2018-03-21T15:15:46.076Z,31.98
2018-03-21T15:18:16.093Z,30.80
2018-03-21T15:20:46.796Z,28.55
2018-03-21T15:23:15.825Z,27.83
2018-03-21T15:25:44.916Z,29.63
2018-03-21T15:28:14.016Z,29.65
2018-03-21T15:30:43.023Z,29.65
2018-03-21T15:33:12.820Z,26.65
2018-03-21T15:35:42.520Z,26.58
2018-03-21T15:38:11.663Z,24.95
2018-03-21T15:40:41.645Z,25.77
2018-03-21T15:43:12.927Z,25.40
2018-03-21T15:45:42.399Z,26.27
2018-03-21T15:48:11.830Z,26.65
2018-03-21T15:50:40.794Z,28.10
2018-03-21T15:53:09.785Z,34.35
2018-03-21T15:55:40.325Z,42.15
2018-03-21T15:58:10.894Z,38.00
2018-03-21T16:00:39.942Z,33.53
2018-03-21T16:03:08.942Z,33.83
2018-03-21T16:05:39.607Z,32.30
2018-03-21T16:08:08.671Z,33.10
2018-03-21T16:10:38.124Z,33.30
2018-03-21T16:13:08.037Z,34.25
2018-03-21T16:15:39.549Z,29.53
2018-03-21T16:18:08.503Z,29.37
2018-03-21T16:20:37.532Z,33.78
2018-03-21T16:23:06.611Z,31.12
2018-03-21T16:25:36.541Z,34.80
2018-03-21T16:28:06.456Z,36.45
2018-03-21T16:30:35.461Z,36.75
2018-03-21T16:33:06.294Z,29.12
2018-03-21T16:35:36.080Z,25.50
2018-03-21T16:38:05.502Z,26.67
2018-03-21T16:40:41.976Z,26.73
2018-03-21T16:43:11.005Z,26.15
2018-03-21T16:45:40.117Z,25.88
2018-03-21T16:50:44.162Z,25.10
2018-03-21T16:53:13.004Z,26.30
2018-03-21T16:55:42.355Z,27.10
2018-03-21T16:58:12.379Z,27.90
2018-03-21T17:00:42.396Z,27.75
2018-03-21T17:03:11.711Z,28.10
2018-03-21T17:05:40.823Z,28.73
2018-03-21T17:08:09.820Z,26.97
2018-03-21T17:15:48.770Z,30.60
2018-03-21T17:18:17.738Z,28.43
2018-03-21T17:20:47.051Z,26.17
2018-03-21T17:23:16.889Z,29.30
2018-03-21T17:25:46.787Z,27.43
2018-03-21T17:28:22.332Z,29.27
2018-03-21T17:30:51.317Z,28.67
2018-03-21T17:33:20.466Z,31.30
2018-03-21T17:35:50.388Z,31.50
2018-03-21T17:38:20.358Z,30.90
2018-03-21T17:40:49.355Z,31.83
2018-03-21T17:43:18.458Z,29.90
2018-03-21T17:45:47.581Z,30.40
2018-03-21T17:48:16.882Z,30.20
2018-03-21T17:50:45.886Z,30.90
2018-03-21T17:53:15.192Z,27.97
2018-03-21T17:55:44.261Z,27.57
2018-03-21T17:58:15.251Z,26.90
2018-03-21T18:00:44.275Z,28.08
2018-03-21T18:03:13.266Z,27.75
2018-03-21T18:08:19.275Z,34.28
2018-03-21T18:10:48.450Z,32.88
2018-03-21T18:13:18.219Z,30.58
2018-03-21T18:15:47.359Z,35.53
2018-03-21T18:18:17.313Z,30.50
2018-03-21T18:20:46.529Z,26.98
2018-03-21T18:23:16.274Z,35.13
2018-03-21T18:25:46.406Z,25.70
2018-03-21T18:28:17.335Z,31.48
2018-03-21T18:30:46.438Z,36.65
2018-03-21T18:33:15.464Z,34.72
2018-03-21T18:35:46.673Z,27.37
2018-03-21T18:38:16.078Z,27.27
2018-03-21T18:40:46.148Z,24.60
2018-03-21T18:43:15.130Z,21.58
2018-03-21T18:45:45.682Z,23.90
2018-03-21T18:48:14.592Z,25.42
2018-03-21T18:50:49.240Z,21.75
2018-03-21T18:53:18.235Z,22.77
2018-03-21T18:55:48.561Z,22.40
2018-03-21T18:58:17.552Z,28.25
2018-03-21T19:00:46.488Z,22.27
2018-03-21T19:03:16.018Z,25.77
2018-03-21T19:05:49.261Z,26.92
2018-03-21T19:08:18.289Z,24.23
2018-03-21T19:10:47.344Z,20.25
2018-03-21T19:13:20.148Z,19.25
2018-03-21T19:15:45.835Z,16.60
2018-03-21T19:18:15.860Z,18.50
2018-03-21T19:20:44.840Z,17.58
2018-03-21T19:23:14.046Z,16.02
2018-03-21T19:25:43.006Z,19.58
2018-03-21T19:28:13.985Z,19.65
2018-03-21T19:30:43.027Z,19.95
2018-03-21T19:33:11.967Z,18.48
2018-03-21T19:35:41.120Z,21.42
2018-03-21T19:38:10.104Z,19.73
2018-03-21T19:40:39.967Z,18.27
2018-03-21T19:43:09.922Z,18.08
2018-03-21T19:45:38.954Z,20.42
2018-03-21T19:48:08.842Z,20.27
2018-03-21T19:50:38.915Z,21.40
2018-03-21T19:53:08.012Z,20.20
2018-03-21T19:55:37.108Z,23.38
2018-03-21T19:58:07.034Z,19.20
2018-03-21T20:00:36.016Z,18.17
2018-03-21T20:03:05.012Z,17.02
2018-03-21T20:05:35.069Z,16.20
2018-03-21T20:08:04.026Z,16.58
2018-03-21T20:10:33.937Z,15.25
2018-03-21T20:13:03.731Z,13.35
2018-03-21T20:15:32.656Z,14.38
2018-03-21T20:18:02.559Z,15.60
2018-03-21T20:20:31.673Z,13.13
2018-03-21T20:23:02.566Z,13.60
2018-03-21T20:25:31.686Z,13.43
2018-03-21T20:28:00.890Z,12.37
2018-03-21T20:30:29.944Z,13.93
2018-03-21T20:32:59.195Z,12.30
2018-03-21T20:35:28.538Z,12.20
2018-03-21T20:37:57.523Z,12.95
2018-03-21T20:40:26.444Z,12.10
2018-03-21T20:42:58.544Z,15.30
2018-03-21T20:45:27.543Z,13.98
2018-03-21T20:47:56.634Z,12.95
2018-03-21T20:50:25.844Z,13.70
2018-03-21T20:52:54.794Z,12.90
2018-03-21T20:55:24.555Z,13.88
2018-03-21T20:57:54.418Z,12.88
2018-03-21T21:00:24.009Z,14.82
2018-03-21T21:02:53.079Z,13.68
2018-03-21T21:05:24.577Z,15.85
2018-03-21T21:07:53.557Z,14.23
2018-03-21T21:10:22.707Z,14.65
2018-03-21T21:12:52.573Z,16.08
2018-03-21T21:15:21.764Z,14.48
2018-03-21T21:17:50.858Z,15.07
2018-03-21T21:20:19.843Z,13.82
2018-03-21T21:22:48.785Z,13.43
2018-03-21T21:25:18.681Z,15.02
2018-03-21T21:30:22.504Z,14.27
2018-03-21T21:32:52.366Z,14.05
2018-03-21T21:35:23.404Z,17.45
2018-03-21T21:37:52.511Z,13.25
2018-03-21T21:40:21.683Z,16.45
2018-03-21T21:42:50.600Z,12.88
2018-03-21T21:45:20.615Z,13.20
2018-03-21T21:47:49.647Z,14.68
2018-03-21T21:50:18.974Z,12.15
2018-03-21T21:52:48.815Z,12.45
2018-03-21T21:55:17.920Z,12.40
2018-03-21T21:57:48.516Z,13.15
2018-03-21T22:00:17.543Z,11.48
2018-03-21T22:02:46.540Z,10.60
2018-03-21T22:05:15.633Z,10.55
2018-03-21T22:07:45.589Z,11.85
2018-03-21T22:10:15.567Z,11.20
2018-03-21T22:12:45.547Z,13.18
2018-03-21T22:15:14.529Z,11.75
2018-03-21T22:17:43.604Z,12.35
2018-03-21T22:20:12.656Z,11.73
2018-03-21T22:22:41.853Z,11.00
2018-03-21T22:25:11.795Z,11.07
2018-03-21T22:27:40.863Z,12.05
2018-03-21T22:30:09.972Z,12.30
2018-03-21T22:32:38.942Z,13.20
2018-03-21T22:35:08.171Z,11.40
2018-03-21T22:37:37.056Z,12.90
2018-03-21T22:40:06.669Z,11.50
2018-03-21T22:42:38.964Z,12.37
2018-03-21T22:45:08.632Z,10.30
2018-03-21T22:47:38.269Z,11.93
2018-03-21T22:50:07.449Z,14.00
2018-03-21T22:52:36.547Z,13.73
2018-03-21T22:55:06.152Z,13.55
2018-03-21T22:57:36.024Z,14.43
2018-03-21T23:00:05.157Z,13.32
2018-03-21T23:02:35.141Z,14.27
2018-03-21T23:05:04.780Z,15.52
2018-03-21T23:07:34.855Z,13.57
2018-03-21T23:10:04.041Z,13.93
2018-03-21T23:12:33.156Z,15.32
2018-03-21T23:15:04.561Z,12.68
2018-03-21T23:17:33.656Z,15.10
2018-03-21T23:20:02.650Z,14.27
2018-03-21T23:22:32.533Z,14.60
2018-03-21T23:25:02.417Z,13.30
2018-03-21T23:27:31.415Z,14.30
2018-03-21T23:30:00.305Z,13.05
2018-03-21T23:32:32.979Z,13.70
2018-03-21T23:35:01.925Z,13.32
2018-03-21T23:37:38.363Z,14.07
2018-03-21T23:40:07.434Z,11.55
2018-03-21T23:42:36.332Z,12.40
2018-03-21T23:45:11.383Z,12.02
2018-03-21T23:47:40.502Z,12.02
2018-03-21T23:50:09.521Z,11.65
2018-03-21T23:52:38.694Z,10.90
2018-03-21T23:55:09.133Z,11.88
2018-03-21T23:57:39.552Z,12.98
